sensor_id;sensor_type;location;lat;lon;timestamp;P1;durP1;ratioP1;P2;durP2;ratioP2
76729;SDS011;65653;53.106;18.046;2024-03-06T00:01:53;48.90;;;17.00;;
76729;SDS011;65653;53.106;18.046;2024-03-06T00:04:20;46.10;;;15.10;;
76729;SDS011;65653;53.106;18.046;2024-03-06T00:06:47;46.20;;;17.90;;
76729;SDS011;65653;53.106;18.046;2024-03-06T00:09:13;47.60;;;16.70;;
76729;SDS011;65653;53.106;18.046;2024-03-06T00:11:40;50.40;;;16.50;;
76729;SDS011;65653;53.106;18.046;2024-03-06T00:14:06;45.40;;;16.30;;
76729;SDS011;65653;53.106;18.046;2024-03-06T00:16:33;48.40;;;16.20;;
76729;SDS011;65653;53.106;18.046;2024-03-06T00:19:00;66.70;;;21.60;;
76729;SDS011;65653;53.106;18.046;2024-03-06T00:21:26;92.80;;;26.10;;
76729;SDS011;65653;53.106;18.046;2024-03-06T00:23:54;49.70;;;14.70;;
76729;SDS011;65653;53.106;18.046;2024-03-06T00:26:21;54.40;;;17.60;;
76729;SDS011;65653;53.106;18.046;2024-03-06T00:28:48;50.20;;;16.10;;
76729;SDS011;65653;53.106;18.046;2024-03-06T00:31:14;49.70;;;16.40;;
76729;SDS011;65653;53.106;18.046;2024-03-06T00:33:41;43.70;;;15.20;;
76729;SDS011;65653;53.106;18.046;2024-03-06T00:36:08;48.50;;;18.70;;
76729;SDS011;65653;53.106;18.046;2024-03-06T00:38:34;51.10;;;18.20;;
76729;SDS011;65653;53.106;18.046;2024-03-06T00:41:01;64.80;;;18.90;;
76729;SDS011;65653;53.106;18.046;2024-03-06T00:43:28;78.40;;;21.70;;
76729;SDS011;65653;53.106;18.046;2024-03-06T00:45:54;67.10;;;19.70;;
76729;SDS011;65653;53.106;18.046;2024-03-06T00:48:20;56.10;;;17.60;;
76729;SDS011;65653;53.106;18.046;2024-03-06T00:50:47;70.80;;;21.20;;
76729;SDS011;65653;53.106;18.046;2024-03-06T00:53:13;44.00;;;13.70;;
76729;SDS011;65653;53.106;18.046;2024-03-06T00:55:40;47.00;;;17.70;;
76729;SDS011;65653;53.106;18.046;2024-03-06T00:58:06;45.50;;;17.20;;
76729;SDS011;65653;53.106;18.046;2024-03-06T01:00:33;51.20;;;18.70;;
76729;SDS011;65653;53.106;18.046;2024-03-06T01:02:59;36.30;;;13.40;;
76729;SDS011;65653;53.106;18.046;2024-03-06T01:05:26;44.60;;;16.90;;
76729;SDS011;65653;53.106;18.046;2024-03-06T01:07:53;42.20;;;16.20;;
76729;SDS011;65653;53.106;18.046;2024-03-06T01:10:20;35.80;;;16.60;;
76729;SDS011;65653;53.106;18.046;2024-03-06T01:12:47;39.30;;;16.20;;
76729;SDS011;65653;53.106;18.046;2024-03-06T01:15:14;49.40;;;17.80;;
76729;SDS011;65653;53.106;18.046;2024-03-06T01:17:40;41.40;;;15.80;;
76729;SDS011;65653;53.106;18.046;2024-03-06T01:20:07;37.10;;;15.00;;
76729;SDS011;65653;53.106;18.046;2024-03-06T01:22:35;44.60;;;18.30;;
76729;SDS011;65653;53.106;18.046;2024-03-06T01:25:01;44.90;;;18.10;;
76729;SDS011;65653;53.106;18.046;2024-03-06T01:27:28;57.40;;;19.20;;
76729;SDS011;65653;53.106;18.046;2024-03-06T01:29:54;49.10;;;18.00;;
76729;SDS011;65653;53.106;18.046;2024-03-06T01:32:21;58.70;;;20.40;;
76729;SDS011;65653;53.106;18.046;2024-03-06T01:34:47;40.60;;;17.40;;
76729;SDS011;65653;53.106;18.046;2024-03-06T01:37:14;42.90;;;16.60;;
76729;SDS011;65653;53.106;18.046;2024-03-06T01:39:41;43.50;;;17.70;;
76729;SDS011;65653;53.106;18.046;2024-03-06T01:42:07;35.10;;;15.50;;
76729;SDS011;65653;53.106;18.046;2024-03-06T01:44:34;44.60;;;18.00;;
76729;SDS011;65653;53.106;18.046;2024-03-06T01:47:00;45.00;;;17.50;;
76729;SDS011;65653;53.106;18.046;2024-03-06T01:49:27;50.60;;;18.20;;
76729;SDS011;65653;53.106;18.046;2024-03-06T01:51:54;60.90;;;20.50;;
76729;SDS011;65653;53.106;18.046;2024-03-06T01:54:23;59.60;;;21.40;;
76729;SDS011;65653;53.106;18.046;2024-03-06T01:56:50;73.70;;;25.40;;
76729;SDS011;65653;53.106;18.046;2024-03-06T01:59:18;70.30;;;24.90;;
76729;SDS011;65653;53.106;18.046;2024-03-06T02:01:47;83.60;;;26.50;;
76729;SDS011;65653;53.106;18.046;2024-03-06T02:04:15;60.30;;;21.50;;
76729;SDS011;65653;53.106;18.046;2024-03-06T02:06:44;87.90;;;25.70;;
76729;SDS011;65653;53.106;18.046;2024-03-06T02:09:12;81.90;;;25.10;;
76729;SDS011;65653;53.106;18.046;2024-03-06T02:11:40;58.60;;;17.90;;
76729;SDS011;65653;53.106;18.046;2024-03-06T02:14:08;70.40;;;22.20;;
76729;SDS011;65653;53.106;18.046;2024-03-06T02:16:36;63.00;;;21.20;;
76729;SDS011;65653;53.106;18.046;2024-03-06T02:19:05;56.30;;;18.80;;
76729;SDS011;65653;53.106;18.046;2024-03-06T02:21:31;66.70;;;21.50;;
76729;SDS011;65653;53.106;18.046;2024-03-06T02:23:58;82.50;;;24.20;;
76729;SDS011;65653;53.106;18.046;2024-03-06T02:26:24;71.90;;;21.90;;
76729;SDS011;65653;53.106;18.046;2024-03-06T02:28:52;78.70;;;24.70;;
76729;SDS011;65653;53.106;18.046;2024-03-06T02:31:20;79.20;;;24.10;;
76729;SDS011;65653;53.106;18.046;2024-03-06T02:33:48;73.10;;;23.90;;
76729;SDS011;65653;53.106;18.046;2024-03-06T02:36:16;58.00;;;18.90;;
76729;SDS011;65653;53.106;18.046;2024-03-06T02:38:43;78.70;;;24.70;;
76729;SDS011;65653;53.106;18.046;2024-03-06T02:41:10;65.70;;;20.60;;
76729;SDS011;65653;53.106;18.046;2024-03-06T02:43:37;72.40;;;23.70;;
76729;SDS011;65653;53.106;18.046;2024-03-06T02:46:04;66.60;;;21.00;;
76729;SDS011;65653;53.106;18.046;2024-03-06T02:48:30;69.10;;;21.00;;
76729;SDS011;65653;53.106;18.046;2024-03-06T02:50:57;78.20;;;23.50;;
76729;SDS011;65653;53.106;18.046;2024-03-06T02:53:23;75.80;;;22.30;;
76729;SDS011;65653;53.106;18.046;2024-03-06T02:55:51;66.60;;;19.50;;
76729;SDS011;65653;53.106;18.046;2024-03-06T02:58:18;71.60;;;21.40;;
76729;SDS011;65653;53.106;18.046;2024-03-06T03:00:44;61.70;;;19.50;;
76729;SDS011;65653;53.106;18.046;2024-03-06T03:03:11;57.30;;;18.30;;
76729;SDS011;65653;53.106;18.046;2024-03-06T03:05:38;94.60;;;24.50;;
76729;SDS011;65653;53.106;18.046;2024-03-06T03:08:06;81.40;;;25.80;;
76729;SDS011;65653;53.106;18.046;2024-03-06T03:10:32;89.40;;;27.30;;
76729;SDS011;65653;53.106;18.046;2024-03-06T03:13:02;80.20;;;22.60;;
76729;SDS011;65653;53.106;18.046;2024-03-06T03:15:28;69.50;;;21.90;;
76729;SDS011;65653;53.106;18.046;2024-03-06T03:17:55;52.30;;;15.80;;
76729;SDS011;65653;53.106;18.046;2024-03-06T03:20:21;69.30;;;19.80;;
76729;SDS011;65653;53.106;18.046;2024-03-06T03:22:47;60.20;;;20.30;;
76729;SDS011;65653;53.106;18.046;2024-03-06T03:25:14;79.60;;;23.30;;
76729;SDS011;65653;53.106;18.046;2024-03-06T03:27:40;86.90;;;26.50;;
76729;SDS011;65653;53.106;18.046;2024-03-06T03:30:07;87.70;;;23.20;;
76729;SDS011;65653;53.106;18.046;2024-03-06T03:32:35;94.40;;;26.80;;
76729;SDS011;65653;53.106;18.046;2024-03-06T03:35:06;65.20;;;19.80;;
76729;SDS011;65653;53.106;18.046;2024-03-06T03:40:00;60.90;;;17.70;;
76729;SDS011;65653;53.106;18.046;2024-03-06T03:42:27;74.00;;;21.40;;
76729;SDS011;65653;53.106;18.046;2024-03-06T03:44:53;47.30;;;14.90;;
76729;SDS011;65653;53.106;18.046;2024-03-06T03:47:20;66.60;;;20.60;;
76729;SDS011;65653;53.106;18.046;2024-03-06T03:49:46;60.10;;;18.10;;
76729;SDS011;65653;53.106;18.046;2024-03-06T03:52:13;49.30;;;13.00;;
76729;SDS011;65653;53.106;18.046;2024-03-06T03:54:40;75.60;;;21.60;;
76729;SDS011;65653;53.106;18.046;2024-03-06T03:57:06;82.90;;;23.20;;
76729;SDS011;65653;53.106;18.046;2024-03-06T03:59:34;90.60;;;24.30;;
76729;SDS011;65653;53.106;18.046;2024-03-06T04:02:03;99.50;;;27.00;;
76729;SDS011;65653;53.106;18.046;2024-03-06T04:04:30;65.10;;;19.40;;
76729;SDS011;65653;53.106;18.046;2024-03-06T04:06:57;83.40;;;22.10;;
76729;SDS011;65653;53.106;18.046;2024-03-06T04:09:25;91.70;;;24.80;;
76729;SDS011;65653;53.106;18.046;2024-03-06T04:11:52;102.30;;;25.90;;
76729;SDS011;65653;53.106;18.046;2024-03-06T04:14:18;103.10;;;28.70;;
76729;SDS011;65653;53.106;18.046;2024-03-06T04:16:47;89.00;;;23.50;;
76729;SDS011;65653;53.106;18.046;2024-03-06T04:19:14;120.20;;;32.90;;
76729;SDS011;65653;53.106;18.046;2024-03-06T04:21:44;89.90;;;24.20;;
76729;SDS011;65653;53.106;18.046;2024-03-06T04:24:10;83.20;;;23.10;;
76729;SDS011;65653;53.106;18.046;2024-03-06T04:26:37;95.80;;;26.50;;
76729;SDS011;65653;53.106;18.046;2024-03-06T04:29:03;91.40;;;24.00;;
76729;SDS011;65653;53.106;18.046;2024-03-06T04:31:30;62.80;;;18.40;;
76729;SDS011;65653;53.106;18.046;2024-03-06T04:33:57;85.60;;;25.70;;
76729;SDS011;65653;53.106;18.046;2024-03-06T04:36:23;111.60;;;29.60;;
76729;SDS011;65653;53.106;18.046;2024-03-06T04:38:50;109.60;;;28.00;;
76729;SDS011;65653;53.106;18.046;2024-03-06T04:41:20;113.60;;;29.50;;
76729;SDS011;65653;53.106;18.046;2024-03-06T04:43:47;85.00;;;24.20;;
76729;SDS011;65653;53.106;18.046;2024-03-06T04:46:13;104.90;;;27.80;;
76729;SDS011;65653;53.106;18.046;2024-03-06T04:48:41;91.00;;;24.00;;
76729;SDS011;65653;53.106;18.046;2024-03-06T04:51:07;83.90;;;25.50;;
76729;SDS011;65653;53.106;18.046;2024-03-06T04:53:36;58.40;;;17.90;;
76729;SDS011;65653;53.106;18.046;2024-03-06T04:56:02;67.60;;;23.10;;
76729;SDS011;65653;53.106;18.046;2024-03-06T04:58:28;58.50;;;20.10;;
76729;SDS011;65653;53.106;18.046;2024-03-06T05:00:55;61.50;;;19.70;;
76729;SDS011;65653;53.106;18.046;2024-03-06T05:03:21;50.20;;;16.60;;
76729;SDS011;65653;53.106;18.046;2024-03-06T05:05:48;58.30;;;21.60;;
76729;SDS011;65653;53.106;18.046;2024-03-06T05:08:15;67.80;;;23.40;;
76729;SDS011;65653;53.106;18.046;2024-03-06T05:10:41;64.80;;;22.60;;
76729;SDS011;65653;53.106;18.046;2024-03-06T05:13:08;65.00;;;21.50;;
76729;SDS011;65653;53.106;18.046;2024-03-06T05:15:35;67.40;;;20.90;;
76729;SDS011;65653;53.106;18.046;2024-03-06T05:18:01;82.10;;;24.00;;
76729;SDS011;65653;53.106;18.046;2024-03-06T05:20:28;57.30;;;19.00;;
76729;SDS011;65653;53.106;18.046;2024-03-06T05:22:57;68.50;;;22.60;;
76729;SDS011;65653;53.106;18.046;2024-03-06T05:25:23;77.70;;;23.10;;
76729;SDS011;65653;53.106;18.046;2024-03-06T05:27:50;77.20;;;22.20;;
76729;SDS011;65653;53.106;18.046;2024-03-06T05:30:17;90.80;;;26.50;;
76729;SDS011;65653;53.106;18.046;2024-03-06T05:32:43;119.20;;;32.50;;
76729;SDS011;65653;53.106;18.046;2024-03-06T05:35:10;96.80;;;27.10;;
76729;SDS011;65653;53.106;18.046;2024-03-06T05:37:37;103.20;;;25.50;;
76729;SDS011;65653;53.106;18.046;2024-03-06T05:40:04;96.40;;;26.20;;
76729;SDS011;65653;53.106;18.046;2024-03-06T05:42:31;81.90;;;22.20;;
76729;SDS011;65653;53.106;18.046;2024-03-06T05:44:57;167.10;;;55.40;;
76729;SDS011;65653;53.106;18.046;2024-03-06T05:47:36;112.70;;;32.00;;
76729;SDS011;65653;53.106;18.046;2024-03-06T05:50:07;118.20;;;29.20;;
76729;SDS011;65653;53.106;18.046;2024-03-06T05:52:34;110.30;;;28.50;;
76729;SDS011;65653;53.106;18.046;2024-03-06T05:55:01;114.70;;;28.20;;
76729;SDS011;65653;53.106;18.046;2024-03-06T05:57:27;116.20;;;29.60;;
76729;SDS011;65653;53.106;18.046;2024-03-06T05:59:54;78.90;;;21.90;;
76729;SDS011;65653;53.106;18.046;2024-03-06T06:02:20;122.00;;;28.40;;
76729;SDS011;65653;53.106;18.046;2024-03-06T06:04:47;111.30;;;29.40;;
76729;SDS011;65653;53.106;18.046;2024-03-06T06:07:13;113.20;;;29.00;;
76729;SDS011;65653;53.106;18.046;2024-03-06T06:09:40;145.20;;;37.20;;
76729;SDS011;65653;53.106;18.046;2024-03-06T06:12:06;97.70;;;27.20;;
76729;SDS011;65653;53.106;18.046;2024-03-06T06:14:34;126.60;;;31.10;;
76729;SDS011;65653;53.106;18.046;2024-03-06T06:17:00;133.30;;;31.80;;
76729;SDS011;65653;53.106;18.046;2024-03-06T06:19:27;80.00;;;22.70;;
76729;SDS011;65653;53.106;18.046;2024-03-06T06:21:54;102.80;;;27.00;;
76729;SDS011;65653;53.106;18.046;2024-03-06T06:24:20;106.20;;;28.40;;
76729;SDS011;65653;53.106;18.046;2024-03-06T06:26:47;113.40;;;30.30;;
76729;SDS011;65653;53.106;18.046;2024-03-06T06:29:13;86.00;;;23.50;;
76729;SDS011;65653;53.106;18.046;2024-03-06T06:31:40;139.00;;;34.10;;
76729;SDS011;65653;53.106;18.046;2024-03-06T06:34:06;163.50;;;35.20;;
76729;SDS011;65653;53.106;18.046;2024-03-06T06:36:33;149.50;;;36.80;;
76729;SDS011;65653;53.106;18.046;2024-03-06T06:39:00;101.50;;;26.20;;
76729;SDS011;65653;53.106;18.046;2024-03-06T06:41:26;108.70;;;27.90;;
76729;SDS011;65653;53.106;18.046;2024-03-06T06:43:53;129.00;;;32.00;;
76729;SDS011;65653;53.106;18.046;2024-03-06T06:46:19;75.70;;;23.80;;
76729;SDS011;65653;53.106;18.046;2024-03-06T06:48:47;114.80;;;31.10;;
76729;SDS011;65653;53.106;18.046;2024-03-06T06:51:15;114.90;;;33.20;;
76729;SDS011;65653;53.106;18.046;2024-03-06T06:53:41;128.80;;;36.70;;
76729;SDS011;65653;53.106;18.046;2024-03-06T06:56:08;83.80;;;27.20;;
76729;SDS011;65653;53.106;18.046;2024-03-06T06:58:34;66.10;;;23.10;;
76729;SDS011;65653;53.106;18.046;2024-03-06T07:01:01;75.40;;;25.50;;
76729;SDS011;65653;53.106;18.046;2024-03-06T07:03:27;50.60;;;20.10;;
76729;SDS011;65653;53.106;18.046;2024-03-06T07:05:56;65.60;;;26.00;;
76729;SDS011;65653;53.106;18.046;2024-03-06T07:08:23;63.70;;;24.40;;
76729;SDS011;65653;53.106;18.046;2024-03-06T07:10:53;64.70;;;24.10;;
76729;SDS011;65653;53.106;18.046;2024-03-06T07:13:21;75.80;;;28.40;;
76729;SDS011;65653;53.106;18.046;2024-03-06T07:15:47;68.80;;;25.40;;
76729;SDS011;65653;53.106;18.046;2024-03-06T07:18:13;70.00;;;26.00;;
76729;SDS011;65653;53.106;18.046;2024-03-06T07:20:40;71.00;;;28.20;;
76729;SDS011;65653;53.106;18.046;2024-03-06T07:23:07;40.00;;;16.90;;
76729;SDS011;65653;53.106;18.046;2024-03-06T07:25:33;43.70;;;19.00;;
76729;SDS011;65653;53.106;18.046;2024-03-06T07:28:00;56.90;;;22.70;;
76729;SDS011;65653;53.106;18.046;2024-03-06T07:30:27;62.00;;;26.00;;
76729;SDS011;65653;53.106;18.046;2024-03-06T07:32:55;63.80;;;25.40;;
76729;SDS011;65653;53.106;18.046;2024-03-06T07:35:23;53.20;;;22.60;;
76729;SDS011;65653;53.106;18.046;2024-03-06T07:37:50;49.70;;;21.90;;
76729;SDS011;65653;53.106;18.046;2024-03-06T07:40:16;53.90;;;24.30;;
76729;SDS011;65653;53.106;18.046;2024-03-06T07:42:43;53.60;;;22.00;;
76729;SDS011;65653;53.106;18.046;2024-03-06T07:45:10;60.50;;;24.50;;
76729;SDS011;65653;53.106;18.046;2024-03-06T07:47:37;55.70;;;23.20;;
76729;SDS011;65653;53.106;18.046;2024-03-06T07:50:05;47.10;;;21.50;;
76729;SDS011;65653;53.106;18.046;2024-03-06T07:52:33;43.10;;;20.60;;
76729;SDS011;65653;53.106;18.046;2024-03-06T07:54:58;47.40;;;22.20;;
76729;SDS011;65653;53.106;18.046;2024-03-06T07:57:24;46.60;;;21.50;;
76729;SDS011;65653;53.106;18.046;2024-03-06T07:59:50;41.50;;;17.70;;
76729;SDS011;65653;53.106;18.046;2024-03-06T08:02:17;53.50;;;24.00;;
76729;SDS011;65653;53.106;18.046;2024-03-06T08:04:43;47.70;;;21.80;;
76729;SDS011;65653;53.106;18.046;2024-03-06T08:07:09;38.80;;;18.50;;
76729;SDS011;65653;53.106;18.046;2024-03-06T08:09:34;43.50;;;20.70;;
76729;SDS011;65653;53.106;18.046;2024-03-06T08:12:00;36.80;;;16.80;;
76729;SDS011;65653;53.106;18.046;2024-03-06T08:14:26;33.50;;;16.50;;
76729;SDS011;65653;53.106;18.046;2024-03-06T08:16:52;36.10;;;18.00;;
76729;SDS011;65653;53.106;18.046;2024-03-06T08:19:18;35.30;;;17.70;;
76729;SDS011;65653;53.106;18.046;2024-03-06T08:21:43;41.00;;;18.60;;
76729;SDS011;65653;53.106;18.046;2024-03-06T08:24:09;35.10;;;17.80;;
76729;SDS011;65653;53.106;18.046;2024-03-06T08:26:34;40.10;;;19.40;;
76729;SDS011;65653;53.106;18.046;2024-03-06T08:29:00;32.80;;;16.00;;
76729;SDS011;65653;53.106;18.046;2024-03-06T08:31:26;39.40;;;17.90;;
76729;SDS011;65653;53.106;18.046;2024-03-06T08:33:51;39.30;;;17.40;;
76729;SDS011;65653;53.106;18.046;2024-03-06T08:36:18;45.80;;;21.40;;
76729;SDS011;65653;53.106;18.046;2024-03-06T08:38:44;39.80;;;18.00;;
76729;SDS011;65653;53.106;18.046;2024-03-06T08:41:10;40.10;;;19.10;;
76729;SDS011;65653;53.106;18.046;2024-03-06T08:43:36;27.50;;;13.00;;
76729;SDS011;65653;53.106;18.046;2024-03-06T08:46:02;34.70;;;17.10;;
76729;SDS011;65653;53.106;18.046;2024-03-06T08:48:28;35.00;;;15.80;;
76729;SDS011;65653;53.106;18.046;2024-03-06T08:50:54;37.40;;;16.50;;
76729;SDS011;65653;53.106;18.046;2024-03-06T08:53:20;28.30;;;14.20;;
76729;SDS011;65653;53.106;18.046;2024-03-06T08:55:46;31.30;;;15.30;;
76729;SDS011;65653;53.106;18.046;2024-03-06T08:58:12;28.00;;;15.00;;
76729;SDS011;65653;53.106;18.046;2024-03-06T09:00:39;25.90;;;13.10;;
76729;SDS011;65653;53.106;18.046;2024-03-06T09:03:05;33.60;;;15.00;;
76729;SDS011;65653;53.106;18.046;2024-03-06T09:05:30;27.30;;;14.40;;
76729;SDS011;65653;53.106;18.046;2024-03-06T09:07:56;30.60;;;13.90;;
76729;SDS011;65653;53.106;18.046;2024-03-06T09:10:22;30.80;;;15.10;;
76729;SDS011;65653;53.106;18.046;2024-03-06T09:12:48;27.20;;;13.90;;
76729;SDS011;65653;53.106;18.046;2024-03-06T09:15:14;27.00;;;14.70;;
76729;SDS011;65653;53.106;18.046;2024-03-06T09:17:41;23.40;;;11.10;;
76729;SDS011;65653;53.106;18.046;2024-03-06T09:20:07;26.10;;;13.10;;
76729;SDS011;65653;53.106;18.046;2024-03-06T09:22:37;28.80;;;14.60;;
76729;SDS011;65653;53.106;18.046;2024-03-06T09:25:04;21.80;;;11.90;;
76729;SDS011;65653;53.106;18.046;2024-03-06T09:27:30;26.60;;;15.10;;
76729;SDS011;65653;53.106;18.046;2024-03-06T09:29:56;28.30;;;16.20;;
76729;SDS011;65653;53.106;18.046;2024-03-06T09:32:22;31.20;;;16.40;;
76729;SDS011;65653;53.106;18.046;2024-03-06T09:34:48;24.00;;;13.50;;
76729;SDS011;65653;53.106;18.046;2024-03-06T09:37:14;25.60;;;13.00;;
76729;SDS011;65653;53.106;18.046;2024-03-06T09:39:41;27.60;;;14.30;;
76729;SDS011;65653;53.106;18.046;2024-03-06T09:42:06;27.20;;;14.00;;
76729;SDS011;65653;53.106;18.046;2024-03-06T09:44:33;22.10;;;11.60;;
76729;SDS011;65653;53.106;18.046;2024-03-06T09:46:59;18.60;;;10.30;;
76729;SDS011;65653;53.106;18.046;2024-03-06T09:49:30;23.50;;;11.10;;
76729;SDS011;65653;53.106;18.046;2024-03-06T09:51:56;29.60;;;14.10;;
76729;SDS011;65653;53.106;18.046;2024-03-06T09:54:23;24.80;;;13.00;;
76729;SDS011;65653;53.106;18.046;2024-03-06T09:56:52;20.90;;;11.70;;
76729;SDS011;65653;53.106;18.046;2024-03-06T09:59:18;20.60;;;11.40;;
76729;SDS011;65653;53.106;18.046;2024-03-06T10:04:19;25.00;;;13.00;;
76729;SDS011;65653;53.106;18.046;2024-03-06T10:06:46;23.90;;;13.50;;
76729;SDS011;65653;53.106;18.046;2024-03-06T10:09:12;19.10;;;10.70;;
76729;SDS011;65653;53.106;18.046;2024-03-06T10:11:38;25.50;;;13.20;;
76729;SDS011;65653;53.106;18.046;2024-03-06T10:14:07;26.40;;;14.60;;
76729;SDS011;65653;53.106;18.046;2024-03-06T10:16:35;25.40;;;11.90;;
76729;SDS011;65653;53.106;18.046;2024-03-06T10:19:14;22.40;;;11.80;;
76729;SDS011;65653;53.106;18.046;2024-03-06T10:21:46;20.70;;;12.10;;
76729;SDS011;65653;53.106;18.046;2024-03-06T10:24:18;24.30;;;12.10;;
76729;SDS011;65653;53.106;18.046;2024-03-06T10:26:45;22.10;;;10.70;;
76729;SDS011;65653;53.106;18.046;2024-03-06T10:29:15;22.00;;;11.80;;
76729;SDS011;65653;53.106;18.046;2024-03-06T10:32:02;26.60;;;13.40;;
76729;SDS011;65653;53.106;18.046;2024-03-06T10:34:28;28.40;;;14.20;;
76729;SDS011;65653;53.106;18.046;2024-03-06T10:36:58;27.10;;;13.80;;
76729;SDS011;65653;53.106;18.046;2024-03-06T10:39:34;21.80;;;12.00;;
76729;SDS011;65653;53.106;18.046;2024-03-06T10:42:06;21.90;;;11.30;;
76729;SDS011;65653;53.106;18.046;2024-03-06T10:44:34;24.10;;;13.10;;
76729;SDS011;65653;53.106;18.046;2024-03-06T10:47:02;21.70;;;11.90;;
76729;SDS011;65653;53.106;18.046;2024-03-06T10:49:31;22.40;;;12.50;;
76729;SDS011;65653;53.106;18.046;2024-03-06T10:52:00;21.50;;;12.20;;
76729;SDS011;65653;53.106;18.046;2024-03-06T10:54:36;23.60;;;12.10;;
76729;SDS011;65653;53.106;18.046;2024-03-06T10:57:07;23.60;;;12.50;;
76729;SDS011;65653;53.106;18.046;2024-03-06T10:59:35;21.10;;;10.90;;
76729;SDS011;65653;53.106;18.046;2024-03-06T11:02:01;23.10;;;13.70;;
76729;SDS011;65653;53.106;18.046;2024-03-06T11:04:27;21.30;;;12.80;;
76729;SDS011;65653;53.106;18.046;2024-03-06T11:06:58;18.60;;;10.40;;
76729;SDS011;65653;53.106;18.046;2024-03-06T11:09:25;25.00;;;13.10;;
76729;SDS011;65653;53.106;18.046;2024-03-06T11:12:09;22.30;;;13.20;;
76729;SDS011;65653;53.106;18.046;2024-03-06T11:14:38;22.20;;;12.20;;
76729;SDS011;65653;53.106;18.046;2024-03-06T11:17:05;20.20;;;11.70;;
76729;SDS011;65653;53.106;18.046;2024-03-06T11:28:27;22.90;;;11.80;;
76729;SDS011;65653;53.106;18.046;2024-03-06T11:30:58;23.30;;;11.80;;
76729;SDS011;65653;53.106;18.046;2024-03-06T11:33:35;21.00;;;12.20;;
76729;SDS011;65653;53.106;18.046;2024-03-06T11:36:45;27.30;;;13.10;;
76729;SDS011;65653;53.106;18.046;2024-03-06T11:38:56;21.20;;;11.50;;
76729;SDS011;65653;53.106;18.046;2024-03-06T11:41:45;23.40;;;12.10;;
76729;SDS011;65653;53.106;18.046;2024-03-06T11:44:16;25.50;;;13.00;;
76729;SDS011;65653;53.106;18.046;2024-03-06T11:46:47;19.70;;;10.90;;
76729;SDS011;65653;53.106;18.046;2024-03-06T11:49:23;21.70;;;12.60;;
76729;SDS011;65653;53.106;18.046;2024-03-06T11:51:51;23.20;;;13.30;;
76729;SDS011;65653;53.106;18.046;2024-03-06T11:54:17;31.60;;;14.90;;
76729;SDS011;65653;53.106;18.046;2024-03-06T11:56:49;20.40;;;10.60;;
76729;SDS011;65653;53.106;18.046;2024-03-06T11:59:16;22.80;;;12.20;;
76729;SDS011;65653;53.106;18.046;2024-03-06T12:01:43;21.70;;;11.60;;
76729;SDS011;65653;53.106;18.046;2024-03-06T12:04:09;20.40;;;11.30;;
76729;SDS011;65653;53.106;18.046;2024-03-06T12:06:37;18.80;;;9.70;;
76729;SDS011;65653;53.106;18.046;2024-03-06T12:09:02;26.30;;;12.70;;
76729;SDS011;65653;53.106;18.046;2024-03-06T12:11:29;19.10;;;10.00;;
76729;SDS011;65653;53.106;18.046;2024-03-06T12:13:56;19.70;;;10.60;;
76729;SDS011;65653;53.106;18.046;2024-03-06T12:16:22;17.70;;;8.50;;
76729;SDS011;65653;53.106;18.046;2024-03-06T12:18:55;19.30;;;10.60;;
76729;SDS011;65653;53.106;18.046;2024-03-06T12:21:28;19.40;;;10.80;;
76729;SDS011;65653;53.106;18.046;2024-03-06T12:24:07;21.00;;;10.80;;
76729;SDS011;65653;53.106;18.046;2024-03-06T12:26:34;21.40;;;12.70;;
76729;SDS011;65653;53.106;18.046;2024-03-06T12:29:10;18.20;;;9.60;;
76729;SDS011;65653;53.106;18.046;2024-03-06T12:31:37;22.50;;;12.30;;
76729;SDS011;65653;53.106;18.046;2024-03-06T12:34:07;20.70;;;11.80;;
76729;SDS011;65653;53.106;18.046;2024-03-06T12:36:32;17.70;;;10.50;;
76729;SDS011;65653;53.106;18.046;2024-03-06T12:38:58;20.70;;;11.10;;
76729;SDS011;65653;53.106;18.046;2024-03-06T12:41:25;18.20;;;11.00;;
76729;SDS011;65653;53.106;18.046;2024-03-06T12:43:52;17.40;;;9.20;;
76729;SDS011;65653;53.106;18.046;2024-03-06T12:46:18;22.10;;;12.00;;
76729;SDS011;65653;53.106;18.046;2024-03-06T12:48:44;16.80;;;10.20;;
76729;SDS011;65653;53.106;18.046;2024-03-06T12:51:11;17.70;;;10.00;;
76729;SDS011;65653;53.106;18.046;2024-03-06T12:53:37;19.60;;;11.80;;
76729;SDS011;65653;53.106;18.046;2024-03-06T12:56:03;16.70;;;9.90;;
76729;SDS011;65653;53.106;18.046;2024-03-06T12:58:29;23.70;;;11.60;;
76729;SDS011;65653;53.106;18.046;2024-03-06T13:00:57;17.90;;;9.20;;
76729;SDS011;65653;53.106;18.046;2024-03-06T13:03:24;15.30;;;7.60;;
76729;SDS011;65653;53.106;18.046;2024-03-06T13:05:49;15.30;;;8.70;;
76729;SDS011;65653;53.106;18.046;2024-03-06T13:08:15;14.20;;;8.70;;
76729;SDS011;65653;53.106;18.046;2024-03-06T13:10:41;18.30;;;10.00;;
76729;SDS011;65653;53.106;18.046;2024-03-06T13:13:07;18.20;;;8.50;;
76729;SDS011;65653;53.106;18.046;2024-03-06T13:15:33;17.80;;;10.50;;
76729;SDS011;65653;53.106;18.046;2024-03-06T13:18:05;17.50;;;9.60;;
76729;SDS011;65653;53.106;18.046;2024-03-06T13:20:32;19.90;;;9.60;;
76729;SDS011;65653;53.106;18.046;2024-03-06T13:22:59;17.40;;;10.00;;
76729;SDS011;65653;53.106;18.046;2024-03-06T13:25:25;16.40;;;9.10;;
76729;SDS011;65653;53.106;18.046;2024-03-06T13:27:51;16.20;;;9.10;;
76729;SDS011;65653;53.106;18.046;2024-03-06T13:30:17;15.80;;;9.40;;
76729;SDS011;65653;53.106;18.046;2024-03-06T13:32:43;15.50;;;8.40;;
76729;SDS011;65653;53.106;18.046;2024-03-06T13:35:11;16.80;;;9.00;;
76729;SDS011;65653;53.106;18.046;2024-03-06T13:37:39;14.20;;;7.80;;
76729;SDS011;65653;53.106;18.046;2024-03-06T13:40:06;12.90;;;7.50;;
76729;SDS011;65653;53.106;18.046;2024-03-06T13:42:34;16.00;;;9.60;;
76729;SDS011;65653;53.106;18.046;2024-03-06T13:45:01;15.30;;;7.90;;
76729;SDS011;65653;53.106;18.046;2024-03-06T13:47:27;11.90;;;6.50;;
76729;SDS011;65653;53.106;18.046;2024-03-06T13:49:53;14.00;;;8.60;;
76729;SDS011;65653;53.106;18.046;2024-03-06T13:52:20;12.60;;;6.80;;
76729;SDS011;65653;53.106;18.046;2024-03-06T13:54:46;12.80;;;7.70;;
76729;SDS011;65653;53.106;18.046;2024-03-06T13:57:13;14.40;;;7.70;;
76729;SDS011;65653;53.106;18.046;2024-03-06T13:59:39;12.00;;;6.20;;
76729;SDS011;65653;53.106;18.046;2024-03-06T14:02:06;12.20;;;6.60;;
76729;SDS011;65653;53.106;18.046;2024-03-06T14:04:32;12.60;;;5.80;;
76729;SDS011;65653;53.106;18.046;2024-03-06T14:06:58;12.90;;;7.20;;
76729;SDS011;65653;53.106;18.046;2024-03-06T14:09:24;11.80;;;6.30;;
76729;SDS011;65653;53.106;18.046;2024-03-06T14:11:51;11.10;;;5.50;;
76729;SDS011;65653;53.106;18.046;2024-03-06T14:14:17;16.60;;;7.20;;
76729;SDS011;65653;53.106;18.046;2024-03-06T14:16:44;12.20;;;5.90;;
76729;SDS011;65653;53.106;18.046;2024-03-06T14:19:10;11.80;;;5.90;;
76729;SDS011;65653;53.106;18.046;2024-03-06T14:21:36;10.70;;;6.20;;
76729;SDS011;65653;53.106;18.046;2024-03-06T14:24:02;10.90;;;6.20;;